Terminal Aerodrome Forecast
Issued by NWS Norman, OK

Home | Current Version | Previous Version | Text Only | Print | Product List | Glossary On
Versions: 1 2 3 4 5 6 7 8 9 10 11 12 13 14 15 16 17 18 19 20 21 22 23 24 25 26 27 28 29 30 31 32 33 34 35 36
000
FTUS44 KOUN 291844 AAA
TAFOKC
TAF AMD
KOKC 291844Z 2919/3018 24013KT P6SM SCT010 OVC020
      TEMPO 2919/2921 -SHRA
     FM300100 29014KT P6SM BKN020 OVC040
     FM301500 34015KT P6SM SCT030=

USA.gov is the U.S. government's official web portal to all federal, state and local government web resources and services.